createdAt,value
2022-10-19T00:01:37.302Z,77.53
2022-10-19T00:06:36.244Z,78.14
2022-10-19T00:11:30.551Z,78.39
2022-10-19T00:16:27.629Z,78.60
2022-10-19T00:21:21.328Z,78.24
2022-10-19T00:26:16.068Z,78.00
2022-10-19T00:31:11.782Z,77.27
2022-10-19T00:36:06.303Z,78.34
2022-10-19T00:40:59.625Z,78.56
2022-10-19T00:45:54.639Z,78.04
2022-10-19T00:50:49.183Z,78.10
2022-10-19T00:55:46.587Z,78.13
2022-10-19T01:00:39.918Z,77.89
2022-10-19T01:05:35.970Z,78.03
2022-10-19T01:10:47.324Z,78.15
2022-10-19T01:15:48.262Z,77.89
2022-10-19T01:21:20.256Z,78.78
2022-10-19T01:26:34.099Z,78.57
2022-10-19T01:31:38.165Z,78.67
2022-10-19T01:36:43.385Z,79.17
2022-10-19T01:41:47.317Z,79.45
2022-10-19T01:46:45.292Z,78.97
2022-10-19T01:51:43.688Z,80.26
2022-10-19T01:56:38.956Z,80.61
2022-10-19T02:01:35.908Z,80.19
2022-10-19T02:06:30.529Z,80.58
2022-10-19T02:11:25.191Z,81.21
2022-10-19T02:16:25.229Z,81.54
2022-10-19T02:21:19.459Z,82.05
2022-10-19T02:26:14.625Z,82.41
2022-10-19T02:31:10.213Z,83.40
2022-10-19T02:36:03.811Z,82.81
2022-10-19T02:41:11.046Z,82.26
2022-10-19T02:46:09.542Z,82.38
2022-10-19T02:51:02.826Z,82.44
2022-10-19T02:55:56.089Z,82.63
2022-10-19T03:00:49.390Z,82.67
2022-10-19T03:05:46.851Z,82.21
2022-10-19T03:10:40.049Z,81.91
2022-10-19T03:15:33.288Z,81.45
2022-10-19T03:20:26.413Z,80.89
2022-10-19T03:25:23.349Z,81.20
2022-10-19T03:30:18.513Z,81.19
2022-10-19T03:35:11.688Z,81.42
2022-10-19T03:40:05.611Z,82.13
2022-10-19T03:45:00.231Z,82.49
2022-10-19T03:49:56.359Z,84.50
2022-10-19T03:54:52.044Z,84.49
2022-10-19T03:59:45.427Z,83.20
2022-10-19T04:04:42.647Z,81.98
2022-10-19T04:09:38.734Z,82.23
2022-10-19T04:14:33.466Z,81.92
2022-10-19T04:19:33.198Z,81.98
2022-10-19T04:24:28.217Z,83.11
2022-10-19T04:29:26.302Z,82.28
2022-10-19T04:34:29.696Z,82.71
2022-10-19T04:39:22.895Z,82.97
2022-10-19T04:44:17.753Z,85.37
2022-10-19T04:49:11.075Z,83.87
2022-10-19T04:54:06.497Z,84.31
2022-10-19T04:59:01.202Z,84.76
2022-10-19T05:08:59.357Z,84.09
2022-10-19T05:13:52.655Z,82.25
2022-10-19T05:18:50.056Z,82.93
2022-10-19T05:23:44.715Z,80.86
2022-10-19T05:28:38.845Z,80.32
2022-10-19T05:33:32.171Z,79.70
2022-10-19T05:38:25.402Z,80.38
2022-10-19T05:43:19.972Z,79.54
2022-10-19T05:48:13.224Z,78.64
2022-10-19T05:53:06.586Z,79.03
2022-10-19T05:57:59.900Z,79.13
2022-10-19T06:02:58.972Z,78.67
2022-10-19T06:07:52.996Z,78.61
2022-10-19T06:12:46.286Z,78.53
2022-10-19T06:17:39.825Z,78.48
2022-10-19T06:22:34.562Z,78.49
2022-10-19T06:27:27.948Z,78.56
2022-10-19T06:32:21.597Z,78.13
2022-10-19T06:37:16.711Z,78.49
2022-10-19T06:42:11.481Z,78.28
2022-10-19T06:47:04.958Z,78.00
2022-10-19T06:52:02.282Z,77.03
2022-10-19T06:56:55.686Z,76.42
2022-10-19T07:01:52.552Z,75.15
2022-10-19T07:06:45.893Z,74.18
2022-10-19T07:11:43.579Z,73.95
2022-10-19T07:16:39.360Z,73.88
2022-10-19T07:21:35.970Z,73.66
2022-10-19T07:26:30.662Z,72.32
2022-10-19T07:31:25.235Z,71.75
2022-10-19T07:36:19.106Z,71.16
2022-10-19T07:41:15.809Z,70.55
2022-10-19T07:46:12.103Z,69.76
2022-10-19T07:51:10.024Z,68.72
2022-10-19T07:56:07.474Z,68.05
2022-10-19T08:01:06.835Z,65.81
2022-10-19T08:06:04.824Z,64.15
2022-10-19T08:11:00.140Z,62.83
2022-10-19T08:15:58.402Z,61.14
2022-10-19T08:20:56.424Z,60.50
2022-10-19T08:25:49.886Z,60.39
2022-10-19T08:30:46.675Z,59.59
2022-10-19T08:35:40.436Z,58.71
2022-10-19T08:40:35.202Z,57.66
2022-10-19T08:50:40.009Z,54.09
2022-10-19T08:55:45.649Z,51.72
2022-10-19T09:00:44.666Z,49.82
2022-10-19T09:05:46.123Z,48.16
2022-10-19T09:10:45.065Z,48.62
2022-10-19T09:15:41.949Z,47.75
2022-10-19T09:20:39.592Z,46.36
2022-10-19T09:25:37.034Z,44.96
2022-10-19T09:30:35.364Z,44.18
2022-10-19T09:35:31.834Z,44.42
2022-10-19T09:40:28.816Z,44.33
2022-10-19T09:45:35.413Z,42.69
2022-10-19T09:50:31.182Z,42.45
2022-10-19T09:55:31.059Z,42.19
2022-10-19T10:12:55.594Z,42.18
2022-10-19T10:17:50.622Z,41.73
2022-10-19T10:22:54.138Z,41.68
2022-10-19T10:27:59.702Z,41.89
2022-10-19T10:32:55.315Z,42.01
2022-10-19T10:37:49.371Z,41.12
2022-10-19T10:42:44.700Z,41.79
2022-10-19T10:47:40.591Z,41.89
2022-10-19T10:52:36.678Z,41.64
2022-10-19T10:57:39.074Z,40.79
2022-10-19T11:02:41.252Z,39.88
2022-10-19T11:07:37.228Z,39.89
2022-10-19T11:12:37.346Z,36.75
2022-10-19T11:17:36.606Z,36.71
2022-10-19T11:22:36.521Z,35.68
2022-10-19T11:27:43.141Z,35.44
2022-10-19T11:32:52.857Z,34.50
2022-10-19T11:38:18.781Z,34.33
2022-10-19T11:43:19.637Z,33.54
2022-10-19T11:48:31.497Z,33.78
2022-10-19T11:53:37.468Z,34.42
2022-10-19T11:58:43.607Z,34.09
2022-10-19T12:03:57.206Z,34.31
2022-10-19T12:09:06.021Z,34.17
2022-10-19T12:14:04.259Z,33.50
2022-10-19T12:19:00.529Z,33.50
2022-10-19T12:23:58.193Z,33.21
2022-10-19T12:28:56.764Z,33.19
2022-10-19T12:33:57.504Z,33.28
2022-10-19T12:39:02.440Z,32.41
2022-10-19T12:44:07.388Z,32.95
2022-10-19T12:49:38.715Z,32.20
2022-10-19T12:54:36.969Z,32.89
2022-10-19T12:59:32.605Z,33.18
2022-10-19T13:04:28.311Z,32.69
2022-10-19T13:09:25.896Z,34.06
2022-10-19T13:14:45.071Z,33.38
2022-10-19T13:19:38.242Z,33.73
2022-10-19T13:24:37.998Z,33.55
2022-10-19T13:29:42.974Z,33.01
2022-10-19T13:34:37.664Z,33.76
2022-10-19T13:39:31.482Z,33.11
2022-10-19T13:44:28.064Z,33.65
2022-10-19T13:49:36.541Z,34.30
2022-10-19T13:54:47.598Z,33.84
2022-10-19T14:00:03.743Z,34.27
2022-10-19T14:05:21.094Z,32.73
2022-10-19T14:10:18.044Z,33.15
2022-10-19T14:15:30.123Z,32.98
2022-10-19T14:20:30.730Z,33.21
2022-10-19T14:25:27.360Z,33.48
2022-10-19T14:30:24.830Z,33.91
2022-10-19T14:35:23.135Z,34.88
2022-10-19T14:40:29.305Z,35.60
2022-10-19T14:45:24.836Z,36.09
2022-10-19T14:50:18.711Z,37.00
2022-10-19T14:55:18.631Z,37.67
2022-10-19T15:00:19.298Z,38.80
2022-10-19T15:05:20.857Z,39.27
2022-10-19T15:10:24.970Z,40.24
2022-10-19T15:16:11.238Z,40.68
2022-10-19T15:21:29.443Z,41.45
2022-10-19T16:02:38.057Z,46.26
2022-10-19T16:08:11.703Z,46.03
2022-10-19T16:13:40.407Z,46.63
2022-10-19T16:18:47.706Z,46.47
2022-10-19T16:24:14.367Z,46.89
2022-10-19T16:35:55.771Z,46.04
2022-10-19T17:43:43.556Z,54.63
2022-10-19T17:48:54.373Z,54.33
2022-10-19T17:54:27.222Z,54.51
2022-10-19T17:59:52.671Z,54.87
2022-10-19T18:18:26.065Z,57.50
2022-10-19T18:37:10.157Z,59.50
2022-10-19T18:42:37.010Z,60.13
2022-10-19T19:07:33.072Z,62.19
2022-10-19T19:13:42.426Z,62.53
2022-10-19T19:19:47.714Z,63.39
2022-10-19T19:25:28.897Z,63.17
2022-10-19T19:36:58.598Z,63.37
2022-10-19T19:42:08.058Z,63.43
2022-10-19T19:47:08.777Z,63.90
2022-10-19T19:52:09.453Z,62.43
2022-10-19T19:57:07.942Z,61.79
2022-10-19T20:02:20.122Z,61.33
2022-10-19T20:07:52.018Z,60.51
2022-10-19T20:19:35.604Z,58.92
2022-10-19T20:25:00.709Z,58.71
2022-10-19T20:29:58.652Z,58.47
2022-10-19T20:34:56.681Z,58.25
2022-10-19T20:39:53.461Z,58.18
2022-10-19T20:44:55.100Z,58.64
2022-10-19T20:49:51.890Z,58.76
2022-10-19T20:54:46.772Z,58.72
2022-10-19T20:59:40.179Z,58.51
2022-10-19T21:04:34.003Z,58.36
2022-10-19T21:09:31.206Z,58.09
2022-10-19T21:14:28.583Z,58.72
2022-10-19T21:19:25.583Z,58.65
2022-10-19T21:24:20.997Z,58.76
2022-10-19T21:29:16.159Z,58.46
2022-10-19T21:34:14.471Z,58.39
2022-10-19T21:39:08.014Z,57.91
2022-10-19T21:49:54.619Z,56.99
2022-10-19T21:54:59.162Z,57.90
2022-10-19T21:59:56.989Z,55.71
2022-10-19T22:05:08.785Z,54.48
2022-10-19T22:10:42.413Z,54.61
2022-10-19T22:15:41.997Z,54.94
2022-10-19T22:20:40.997Z,54.86
2022-10-19T22:25:36.447Z,56.40
2022-10-19T22:30:29.980Z,56.85
2022-10-19T22:35:23.609Z,57.78
2022-10-19T22:40:18.629Z,58.16
2022-10-19T22:45:11.954Z,58.62
2022-10-19T22:50:06.830Z,57.86
2022-10-19T22:55:02.691Z,56.82
2022-10-19T23:00:00.282Z,55.99
2022-10-19T23:04:53.620Z,55.59
2022-10-19T23:09:50.563Z,55.40
2022-10-19T23:14:46.236Z,56.22
2022-10-19T23:19:41.062Z,57.26
2022-10-19T23:24:34.395Z,55.60
2022-10-19T23:29:27.662Z,57.04
2022-10-19T23:34:20.885Z,57.14
2022-10-19T23:39:15.496Z,58.09
2022-10-19T23:44:08.877Z,58.67
2022-10-19T23:49:02.350Z,59.84
2022-10-19T23:53:56.751Z,60.23
2022-10-19T23:58:54.445Z,60.56
